Thunder radar more information blitzortung!


Radar de pluja more information rain snow radar


Visita la nostra xarxa de llocs de meteo:

Template documentation
and downloads

And another site



No particular awareness of the weather is required.    There are no Weather-warnings

Pagina Historial Weather Underground text

Diari Resum Agost 10, 2017 Unitats:  Mètric    Imperial   Tant
« Previous Dia
SegĂźent Dia »
Diari Setmana Mensual Anual Personalitzada
  Maxima: Minima: Media:
Temperatura: -17.8 °C -10.1 °C -5.4 °C
Punt de rosada: -17.8 °C -14.3 °C -12.1 °C
Humitat: Humidity % 27 % 49 %
Wind Speed: 0 km/h 0 km/h 10.8 km/h
RĂ fegues de vent: 0 km/h - -
Vent:- - SSW
Pression baro: 0 hPa 34395 hPa -
Precipitacions: 0 mm    
Historical Graphs
 
 
Dades de taula per Agost 10, 2017
Temps Temperatura Punt de rosada Pression baro Vent Wind Speed RĂ fegues de vent Humitat Rainfall Rate (Hourly)
-17.8 °C -17.8 °C 0 hPa Calm     Humidity % 0 mm
00:00 -9.5 °C -11 °C 34462.7 hPa WSW 2.6 km/h 5.1 km/h 84 % 0 mm
00:01 -8.7 °C -9.8 °C 34462.7 hPa NE 3.1 km/h   88 % 180.34 mm
00:06 -8.7 °C -9.9 °C 34462.7 hPa SW 6 km/h 6 km/h 87 % 180.34 mm
00:10 -9.6 °C -11.1 °C 34462.7 hPa SW 2.6 km/h 7.7 km/h 84 % 0 mm
00:20 -9.7 °C -11.2 °C 34496.6 hPa WSW 2.6 km/h 7.7 km/h 84 % 0 mm
00:30 -9.8 °C -11.3 °C 34496.6 hPa WSW 5.1 km/h 7.7 km/h 83 % 0 mm
00:40 -9.8 °C -11.4 °C 34462.7 hPa WSW 2.6 km/h 7.7 km/h 83 % 0 mm
00:50 -9.9 °C -11.7 °C 34462.7 hPa WSW 5.1 km/h 10.3 km/h 81 % 0 mm
01:00 -9.8 °C -11.7 °C 34462.7 hPa WSW 7.7 km/h 10.3 km/h 80 % 0 mm
01:10 -9.8 °C -11.8 °C 34428.8 hPa WSW 7.7 km/h 10.3 km/h 79 % 0 mm
01:20 -9.8 °C -11.9 °C 34462.7 hPa WSW 5.1 km/h 7.7 km/h 78 % 0 mm
01:30 -9.8 °C -11.9 °C 34462.7 hPa West 2.6 km/h 5.1 km/h 78 % 0 mm
01:40 -9.8 °C -12.1 °C 34462.7 hPa West 5.1 km/h 10.3 km/h 77 % 0 mm
01:50 -9.9 °C -12.1 °C 34462.7 hPa West 5.1 km/h 5.1 km/h 77 % 0 mm
02:00 -9.9 °C -12.3 °C 34462.7 hPa WNW 2.6 km/h 5.1 km/h 76 % 0 mm
02:10 -10 °C -12.3 °C 34428.8 hPa WNW 5.1 km/h 7.7 km/h 76 % 0 mm
02:20 -10 °C -12.3 °C 34462.7 hPa West 2.6 km/h 10.3 km/h 76 % 0 mm
02:30 -10 °C -12.3 °C 34462.7 hPa WSW 5.1 km/h 7.7 km/h 76 % 0 mm
02:40 -10.1 °C -12.4 °C 34462.7 hPa WSW 5.1 km/h 12.9 km/h 76 % 0 mm
02:50 -10.1 °C -12.4 °C 34462.7 hPa West 2.6 km/h 7.7 km/h 75 % 0 mm
03:00 -10.1 °C -12.4 °C 34462.7 hPa West 5.1 km/h 7.7 km/h 75 % 0 mm
03:10 -10.1 °C -12.4 °C 34496.6 hPa Calm   7.7 km/h 76 % 0 mm
03:20 -9.9 °C -12.2 °C 34496.6 hPa West 5.1 km/h 7.7 km/h 76 % 0 mm
03:30 -9.8 °C -12.2 °C 34496.6 hPa Calm   7.7 km/h 76 % 0 mm
03:40 -9.8 °C -12 °C 34533.8 hPa SW 2.6 km/h 5.1 km/h 77 % 0 mm
03:50 -9.8 °C -12 °C 34533.8 hPa SW 2.6 km/h 7.7 km/h 77 % 0 mm
04:00 -9.7 °C -12 °C 34533.8 hPa WSW 5.1 km/h 7.7 km/h 76 % 0 mm
04:10 -9.6 °C -11.9 °C 34533.8 hPa WSW 2.6 km/h 5.1 km/h 76 % 0 mm
04:20 -9.4 °C -11.8 °C 34567.7 hPa West 2.6 km/h 5.1 km/h 76 % 0 mm
04:30 -9.3 °C -11.6 °C 34567.7 hPa NW 2.6 km/h 7.7 km/h 76 % 0 mm
04:40 -8.7 °C -11.2 °C 34533.8 hPa North 2.6 km/h 7.7 km/h 75 % 0 mm
04:50 -8.4 °C -11.1 °C 34533.8 hPa NNE 2.6 km/h 7.7 km/h 74 % 0 mm
05:00 -8.2 °C -10.9 °C 34533.8 hPa ENE 2.6 km/h 10.3 km/h 73 % 0 mm
05:10 -8.2 °C -11.1 °C 34533.8 hPa SSW 5.1 km/h 15.6 km/h 71 % 0 mm
10:14 -7.8 °C -10.9 °C 34533.8 hPa SW 9 km/h 9 km/h 70 % 0 mm
10:15 -7.8 °C -10.9 °C 34533.8 hPa WSW 9 km/h 9 km/h 70 % 0 mm
10:20 -7.4 °C -10.7 °C 34533.8 hPa East 6.3 km/h 6.3 km/h 69 % 0 mm
10:25 -7.6 °C -10.9 °C 34533.8 hPa ENE 11.9 km/h 11.9 km/h 68 % 0 mm
10:30 -7.5 °C -10.7 °C 34533.8 hPa NNW 6 km/h 6 km/h 69 % 0 mm
10:35 -7.4 °C -10.8 °C 34533.8 hPa NW 6 km/h 6 km/h 68 % 0 mm
10:40 -7.5 °C -11.1 °C 34533.8 hPa NNE 9 km/h 9 km/h 66 % 0 mm
10:45 -7.4 °C -10.9 °C 34533.8 hPa North 11.9 km/h 11.9 km/h 67 % 0 mm
10:50 -7.1 °C -10.7 °C 34533.8 hPa ENE 9 km/h 9 km/h 66 % 0 mm
10:55 -7.1 °C -10.9 °C 34533.8 hPa NNW 9 km/h 9 km/h 65 % 0 mm
11:00 -7.1 °C -10.7 °C 34533.8 hPa SW 14 km/h 14 km/h 66 % 0 mm
11:05 -7.1 °C -10.8 °C 34533.8 hPa SSW 3.1 km/h   65 % 0 mm
11:10 -6.8 °C -10.7 °C 34533.8 hPa NE 6.3 km/h 6.3 km/h 64 % 0 mm
11:15 -6.8 °C -10.8 °C 34533.8 hPa ESE 6 km/h 6 km/h 63 % 0 mm
11:20 -6.3 °C -10.4 °C 34533.8 hPa NE 9 km/h 9 km/h 63 % 0 mm
11:25 -6.3 °C -10.5 °C 34533.8 hPa ESE 6 km/h 6 km/h 62 % 0 mm
11:30 -5.9 °C -10.4 °C 34533.8 hPa ESE 6 km/h 6 km/h 60 % 0 mm
11:35 -6 °C -10.5 °C 34533.8 hPa West 9 km/h 9 km/h 60 % 0 mm
11:40 -6 °C -10.5 °C 34533.8 hPa SW 9 km/h 9 km/h 60 % 0 mm
11:45 -5.7 °C -10.2 °C 34496.6 hPa WSW 9 km/h 9 km/h 60 % 0 mm
11:50 -5.7 °C -10.3 °C 34496.6 hPa NE 9 km/h 9 km/h 59 % 0 mm
11:55 -5.7 °C -10.5 °C 34496.6 hPa NW 9 km/h 9 km/h 58 % 0 mm
12:00 -5.8 °C -10.6 °C 34496.6 hPa ENE 11.9 km/h 11.9 km/h 58 % 0 mm
12:05 -5.9 °C -10.9 °C 34496.6 hPa WNW 17.9 km/h 17.9 km/h 57 % 0 mm
12:10 -5.8 °C -10.8 °C 34496.6 hPa NNE 16.1 km/h 16.1 km/h 57 % 0 mm
12:15 -5.9 °C -11.2 °C 34496.6 hPa North 10.3 km/h 10.3 km/h 55 % 0 mm
12:20 -5.6 °C -10.8 °C 34496.6 hPa SW 6 km/h 6 km/h 55 % 0 mm
12:25 -5.3 °C -10.6 °C 34496.6 hPa East 3.7 km/h 3.7 km/h 55 % 0 mm
12:30 -5.2 °C -10.6 °C 34496.6 hPa ENE 11.9 km/h 11.9 km/h 54 % 0 mm
12:35 -5.1 °C -10.5 °C 34496.6 hPa East 6.3 km/h 6.3 km/h 54 % 0 mm
12:40 -4.9 °C -10.5 °C 34496.6 hPa NW 9.8 km/h 9.8 km/h 53 % 0 mm
12:45 -4.9 °C -10.5 °C 34496.6 hPa SSW 6 km/h 6.3 km/h 53 % 0 mm
12:50 -4.6 °C -10.4 °C 34496.6 hPa SSW 12.2 km/h 12.2 km/h 52 % 0 mm
12:55 -4.6 °C -10.7 °C 34496.6 hPa West 15 km/h 15 km/h 50 % 0 mm
13:00 -4.6 °C -10.9 °C 34496.6 hPa West 6 km/h 7.6 km/h 49 % 0 mm
13:05 -4.2 °C -10.6 °C 34496.6 hPa SW 16.1 km/h 16.1 km/h 49 % 0 mm
13:10 -4.3 °C -10.8 °C 34496.6 hPa SW 15 km/h 15 km/h 48 % 0 mm
13:15 -4 °C -10.5 °C 34496.6 hPa SW 14.5 km/h 14.5 km/h 48 % 0 mm
13:20 -3.9 °C -10.6 °C 34496.6 hPa West 9 km/h 9 km/h 47 % 0 mm
13:25 -3.9 °C -11 °C 34496.6 hPa WSW 9 km/h 9 km/h 45 % 0 mm
13:30 -3.8 °C -10.9 °C 34496.6 hPa WNW 23.8 km/h 23.8 km/h 45 % 0 mm
13:35 -3.6 °C -10.7 °C 34496.6 hPa West 11.9 km/h 11.9 km/h 45 % 0 mm
13:40 -3.6 °C -10.9 °C 34496.6 hPa SW 20.9 km/h 20.9 km/h 44 % 0 mm
13:45 -3.4 °C -10.9 °C 34462.7 hPa West 15 km/h 15 km/h 43 % 0 mm
13:50 -3.6 °C -11.5 °C 34462.7 hPa WSW 17.9 km/h 17.9 km/h 41 % 0 mm
13:55 -3.6 °C -11.4 °C 34462.7 hPa SSW 15 km/h 15 km/h 41 % 0 mm
14:00 -3.4 °C -11.5 °C 34462.7 hPa South 15 km/h 15 km/h 40 % 0 mm
14:05 -3.4 °C -11.8 °C 34462.7 hPa SE 15 km/h 15 km/h 39 % 0 mm
14:10 -3.5 °C -12.1 °C 34462.7 hPa West 20.9 km/h 20.9 km/h 38 % 0 mm
14:15 -3.4 °C -12.2 °C 34462.7 hPa SSW 15 km/h 15 km/h 37 % 0 mm
14:20 -3.3 °C -12.3 °C 34462.7 hPa SSW 23.8 km/h 23.8 km/h 36 % 0 mm
14:25 -3.2 °C -12 °C 34462.7 hPa WSW 12.7 km/h 12.7 km/h 37 % 0 mm
14:30 -3.2 °C -12.5 °C 34462.7 hPa WSW 15 km/h 15 km/h 35 % 0 mm
14:35 -3.1 °C -12.4 °C 34462.7 hPa WSW 15 km/h 15 km/h 35 % 0 mm
14:40 -3.4 °C -13.1 °C 34462.7 hPa SW 26.9 km/h 26.9 km/h 33 % 0 mm
14:45 -3.2 °C -12.7 °C 34462.7 hPa SW 11.9 km/h 11.9 km/h 34 % 0 mm
14:50 -3.1 °C -12.9 °C 34462.7 hPa SW 9 km/h 9 km/h 33 % 0 mm
14:55 -3.1 °C -12.9 °C 34462.7 hPa NNW 17.9 km/h 17.9 km/h 33 % 0 mm
15:00 -2.9 °C -12.4 °C 34462.7 hPa West 17.9 km/h 17.9 km/h 34 % 0 mm
15:05 -2.8 °C -12.6 °C 34462.7 hPa NNW 11.9 km/h 11.9 km/h 33 % 0 mm
15:10 -2.9 °C -12.7 °C 34462.7 hPa SW 9 km/h 9 km/h 33 % 0 mm
15:15 -3.1 °C -12.6 °C 34462.7 hPa WSW 17.9 km/h 17.9 km/h 34 % 0 mm
15:20 -2.8 °C -12.6 °C 34462.7 hPa SSW 15.6 km/h 15.6 km/h 33 % 0 mm
15:25 -2.7 °C -12.8 °C 34462.7 hPa NNW 9 km/h 9 km/h 32 % 0 mm
15:30 -2.7 °C -12.7 °C 34462.7 hPa SE 8 km/h 8 km/h 32 % 0 mm
15:35 -2.4 °C -12.3 °C 34462.7 hPa West 11.9 km/h 11.9 km/h 33 % 0 mm
15:40 -2.4 °C -12.5 °C 34462.7 hPa SW 15 km/h 15 km/h 32 % 0 mm
15:45 -2.6 °C -12.7 °C 34428.8 hPa WSW 11.9 km/h 11.9 km/h 32 % 0 mm
15:50 -2.4 °C -12.5 °C 34428.8 hPa ENE 6 km/h 6.8 km/h 32 % 0 mm
15:55 -2.4 °C -12.5 °C 34428.8 hPa SSW 19.2 km/h 19.2 km/h 32 % 0 mm
16:00 -2.2 °C -12.8 °C 34462.7 hPa SW 17.9 km/h 17.9 km/h 30 % 0 mm
16:05 -2.3 °C -12.9 °C 34462.7 hPa SW 11.9 km/h 11.9 km/h 30 % 0 mm
16:10 -2.2 °C -12.9 °C 34462.7 hPa SW 15 km/h 15 km/h 30 % 0 mm
16:15 -2.1 °C -12.8 °C 34462.7 hPa SW 15 km/h 15 km/h 30 % 0 mm
16:20 -1.9 °C -12.9 °C 34462.7 hPa South 15 km/h 15 km/h 29 % 0 mm
16:23 -1.9 °C -12.7 °C 34462.7 hPa SW 17.9 km/h 17.9 km/h 30 % 0 mm
16:27 -2.1 °C -13.1 °C 34462.7 hPa NE 11.9 km/h 11.9 km/h 29 % 0 mm
16:33 -2.4 °C -13.3 °C 34462.7 hPa SW 11.9 km/h 11.9 km/h 29 % 0 mm
16:38 -2.1 °C -13.1 °C 34462.7 hPa West 11.9 km/h 11.9 km/h 29 % 0 mm
16:43 -2 °C -12.9 °C 34462.7 hPa SW 10.3 km/h 10.3 km/h 29 % 0 mm
16:47 -2.1 °C -13.3 °C 34428.8 hPa WSW 15 km/h 15 km/h 28 % 0 mm
16:52 -1.8 °C -12.8 °C 34428.8 hPa West 11.9 km/h 11.9 km/h 29 % 0 mm
16:57 -1.8 °C -12.8 °C 34428.8 hPa SW 9 km/h 9 km/h 29 % 0 mm
17:02 -1.8 °C -13.1 °C 34428.8 hPa West 11.9 km/h 11.9 km/h 28 % 0 mm
17:08 -1.8 °C -13.1 °C 34428.8 hPa WNW 11.9 km/h 11.9 km/h 28 % 0 mm
17:13 -1.8 °C -13.1 °C 34428.8 hPa WSW 11.9 km/h 11.9 km/h 28 % 0 mm
17:18 -1.9 °C -13.2 °C 34428.8 hPa SW 9 km/h 9.8 km/h 28 % 0 mm
17:22 -1.9 °C -13.2 °C 34428.8 hPa West 20.9 km/h 20.9 km/h 28 % 0 mm
17:27 -1.8 °C -13.1 °C 34428.8 hPa SW 9 km/h 9 km/h 28 % 0 mm
17:32 -1.6 °C -13.2 °C 34395 hPa WSW 17.9 km/h 17.9 km/h 27 % 0 mm
17:38 -1.8 °C -13.4 °C 34395 hPa West 15 km/h 15 km/h 27 % 0 mm
17:43 -1.7 °C -13 °C 34395 hPa SW 16.1 km/h 16.1 km/h 28 % 0 mm
17:48 -1.9 °C -13.5 °C 34395 hPa SSW 17.9 km/h 17.9 km/h 27 % 0 mm
17:53 -1.9 °C -13.4 °C 34395 hPa South 15 km/h 15 km/h 27 % 0 mm
17:58 -2.3 °C -13.5 °C 34395 hPa WSW 35.7 km/h 35.7 km/h 28 % 0 mm
18:03 -2.3 °C -13 °C 34395 hPa SSW 11.9 km/h 11.9 km/h 30 % 0 mm
18:08 -2.3 °C -13 °C 34395 hPa SSW 23.8 km/h 23.8 km/h 30 % 0 mm
18:13 -2.6 °C -12.9 °C 34395 hPa SW 20.9 km/h 20.9 km/h 31 % 0 mm
18:18 -3 °C -13.3 °C 34395 hPa SW 38.8 km/h 38.8 km/h 31 % 0 mm
18:23 -3.1 °C -13.1 °C 34395 hPa SW 29.5 km/h 29.5 km/h 32 % 0 mm
18:28 -3.3 °C -13.3 °C 34395 hPa South 26.9 km/h 26.9 km/h 32 % 0 mm
18:33 -3.3 °C -13.1 °C 34395 hPa SSW 23.8 km/h 23.8 km/h 33 % 0 mm
18:38 -3.3 °C -12.8 °C 34395 hPa SW 26.9 km/h 26.9 km/h 34 % 0 mm
18:43 -3.4 °C -12.9 °C 34395 hPa SSW 23.8 km/h 23.8 km/h 34 % 0 mm
18:48 -3.5 °C -12.9 °C 34395 hPa WSW 23.8 km/h 23.8 km/h 34 % 0 mm
18:53 -3.5 °C -12.7 °C 34395 hPa SW 23.8 km/h 23.8 km/h 35 % 0 mm
18:58 -3.7 °C -12.9 °C 34395 hPa SW 20.9 km/h 20.9 km/h 35 % 0 mm
19:03 -3.6 °C -12.6 °C 34395 hPa SW 15 km/h 15 km/h 36 % 0 mm
19:08 -3.7 °C -12.7 °C 34395 hPa SW 26.9 km/h 26.9 km/h 36 % 0 mm
19:13 -3.8 °C -12.7 °C 34395 hPa SW 32.8 km/h 32.8 km/h 36 % 0 mm
19:18 -3.8 °C -12.7 °C 34395 hPa SSW 23.8 km/h 23.8 km/h 36 % 0 mm
19:23 -3.8 °C -12.8 °C 34395 hPa South 23.8 km/h 23.8 km/h 36 % 0 mm
19:28 -3.8 °C -12.8 °C 34395 hPa SW 25.1 km/h 25.1 km/h 36 % 0 mm
19:38 -3.9 °C -12.4 °C 34395 hPa SW 23.8 km/h 23.8 km/h 38 % 0 mm
19:43 -4.1 °C -12.6 °C 34395 hPa WSW 23.8 km/h 23.8 km/h 38 % 0 mm
19:48 -4.1 °C -12.6 °C 34395 hPa West 31.9 km/h 31.9 km/h 38 % 0 mm
19:53 -4.2 °C -12.7 °C 34395 hPa West 15.3 km/h 15.3 km/h 38 % 0 mm
19:58 -4.2 °C -12.4 °C 34395 hPa SSW 15 km/h 15 km/h 39 % 0 mm
20:03 -4.2 °C -12.4 °C 34395 hPa WSW 15 km/h 15 km/h 39 % 0 mm
20:08 -4.3 °C -12.3 °C 34395 hPa WSW 22 km/h 22 km/h 40 % 0 mm
20:13 -4.3 °C -12.4 °C 34395 hPa SW 11.9 km/h 11.9 km/h 40 % 0 mm
20:18 -4.4 °C -12.3 °C 34395 hPa SW 15 km/h 15 km/h 41 % 0 mm
20:23 -4.4 °C -12.3 °C 34395 hPa SW 14.5 km/h 14.5 km/h 41 % 0 mm
20:28 -4.5 °C -12.1 °C 34395 hPa SSW 9 km/h 9 km/h 42 % 0 mm
20:33 -4.6 °C -12.2 °C 34428.8 hPa SW 11.9 km/h 11.9 km/h 42 % 0 mm
20:38 -4.7 °C -12.1 °C 34428.8 hPa SW 9 km/h 9.3 km/h 43 % 0 mm
20:40 -6.8 °C -13.1 °C 34496.6 hPa WSW 7.7 km/h 7.7 km/h 48 % 0 mm
20:43 -4.7 °C -12.1 °C 34428.8 hPa WSW 15 km/h 15 km/h 43 % 0 mm
20:48 -4.8 °C -12 °C 34428.8 hPa SW 11.9 km/h 11.9 km/h 44 % 0 mm
20:50 -6.9 °C -13.2 °C 34496.6 hPa WSW 5.1 km/h 12.9 km/h 48 % 0 mm
20:53 -4.8 °C -12.1 °C 34428.8 hPa WNW 9 km/h 9 km/h 44 % 0 mm
20:54 -4.8 °C -12.1 °C 34428.8 hPa WSW 6 km/h 6 km/h 44 % 0 mm
20:59 -4.9 °C -11.9 °C 34428.8 hPa WSW 6 km/h 6.3 km/h 45 % 0 mm
21:00 -7.1 °C -13.5 °C 34496.6 hPa West 2.6 km/h 7.7 km/h 47 % 0 mm
21:04 -4.9 °C -11.9 °C 34462.7 hPa West 6 km/h 6 km/h 45 % 0 mm
21:09 -5 °C -11.8 °C 34462.7 hPa West 4.2 km/h 4.2 km/h 46 % 0 mm
21:10 -7.2 °C -13.6 °C 34496.6 hPa West 7.7 km/h 7.7 km/h 47 % 0 mm
21:14 -5.1 °C -11.7 °C 34462.7 hPa West 3.1 km/h   47 % 0 mm
21:19 -5.1 °C -11.7 °C 34428.8 hPa NNE 6 km/h 6 km/h 47 % 0 mm
21:20 -7.3 °C -13.5 °C 34496.6 hPa WSW 5.1 km/h 7.7 km/h 48 % 0 mm
21:24 -5.2 °C -11.8 °C 34428.8 hPa NNE 3.1 km/h 3.1 km/h 47 % 0 mm
21:29 -5.2 °C -11.8 °C 34462.7 hPa NNE 4.2 km/h 4.2 km/h 47 % 0 mm
21:30 -7.4 °C -13.7 °C 34496.6 hPa West 2.6 km/h 10.3 km/h 48 % 0 mm
21:34 -5.3 °C -11.9 °C 34462.7 hPa NNE 9 km/h 9 km/h 47 % 0 mm
21:39 -5.3 °C -11.8 °C 34462.7 hPa NNE 9 km/h 9 km/h 48 % 0 mm
21:40 -7.5 °C -13.7 °C 34496.6 hPa West 5.1 km/h 7.7 km/h 48 % 0 mm
21:44 -5.3 °C -11.8 °C 34462.7 hPa East 6 km/h 6 km/h 48 % 0 mm
21:49 -5.3 °C -11.7 °C 34462.7 hPa WNW 6 km/h 6 km/h 48 % 0 mm
21:50 -7.6 °C -13.8 °C 34496.6 hPa West 5.1 km/h 12.9 km/h 48 % 0 mm
21:54 -5.3 °C -11.8 °C 34462.7 hPa ENE 3.1 km/h   48 % 0 mm
21:59 -5.4 °C -11.8 °C 34462.7 hPa NNE 6 km/h 6 km/h 48 % 0 mm
22:00 -7.7 °C -13.9 °C 34496.6 hPa West 5.1 km/h 7.7 km/h 48 % 0 mm
22:04 -5.4 °C -11.8 °C 34462.7 hPa West 3.1 km/h   48 % 0 mm
22:09 -5.4 °C -11.7 °C 34462.7 hPa ESE 9 km/h 9 km/h 49 % 0 mm
22:10 -7.8 °C -14 °C 34496.6 hPa WSW 2.6 km/h 7.7 km/h 48 % 0 mm
22:14 -5.4 °C -11.8 °C 34462.7 hPa Calm     48 % 0 mm
22:19 -5.4 °C -11.7 °C 34462.7 hPa NNE 12.7 km/h 12.7 km/h 49 % 0 mm
22:20 -7.9 °C -14.1 °C 34496.6 hPa West 2.6 km/h 5.1 km/h 48 % 0 mm
22:24 -5.4 °C -11.7 °C 34462.7 hPa NE 6.3 km/h 6.3 km/h 49 % 0 mm
22:29 -5.5 °C -11.7 °C 34462.7 hPa WSW 6.3 km/h 6.8 km/h 49 % 0 mm
22:30 -8.1 °C -14.1 °C 34496.6 hPa West 2.6 km/h 5.1 km/h 49 % 0 mm
22:34 -5.6 °C -11.6 °C 34462.7 hPa ENE 10.3 km/h 10.3 km/h 50 % 0 mm
22:39 -5.6 °C -11.8 °C 34462.7 hPa ENE 6.3 km/h 6.3 km/h 49 % 0 mm
22:40 -8.3 °C -14.3 °C 34496.6 hPa Calm   5.1 km/h 49 % 0 mm
22:44 -5.5 °C -11.6 °C 34496.6 hPa ESE 7.6 km/h 7.6 km/h 50 % 0 mm
22:50 -5.5 °C -11.6 °C 34496.6 hPa NW 9 km/h 9 km/h 50 % 0 mm
22:55 -5.5 °C -11.6 °C 34496.6 hPa NE 15 km/h 15 km/h 50 % 0 mm
23:00 -5.5 °C -11.7 °C 34496.6 hPa SE 8 km/h 8 km/h 49 % 0 mm
23:05 -5.5 °C -11.6 °C 34496.6 hPa ENE 6 km/h 6 km/h 50 % 0 mm
23:10 -5.6 °C -11.6 °C 34496.6 hPa ENE 5.1 km/h 5.1 km/h 50 % 0 mm
23:15 -5.6 °C -11.5 °C 34496.6 hPa NE 6 km/h 6 km/h 51 % 0 mm
23:20 -5.7 °C -11.6 °C 34496.6 hPa ESE 4.2 km/h 4.2 km/h 51 % 0 mm
23:25 -5.7 °C -11.4 °C 34496.6 hPa ENE 9 km/h 9 km/h 52 % 0 mm
23:30 -5.8 °C -11.5 °C 34496.6 hPa NE 6 km/h 6 km/h 52 % 0 mm
23:35 -5.8 °C -11.5 °C 34496.6 hPa NNE 6 km/h 6 km/h 52 % 0 mm
23:40 -5.8 °C -11.4 °C 34496.6 hPa Calm     53 % 0 mm
23:45 -5.8 °C -11.4 °C 34496.6 hPa NW 4.2 km/h 4.2 km/h 53 % 0 mm
23:50 -5.8 °C -11.4 °C 34496.6 hPa North 6.3 km/h 6.3 km/h 53 % 0 mm
23:55 -5.9 °C -11.8 °C 34496.6 hPa ENE 3.1 km/h   51 % 0 mm
Meteo Sesrovires
Elogis d' Weather Underground - 1.5 mb

Guio original per  Jim McMurry - jmcmurry@mwt.net Adaptat per a la plantilla per  Wim van der Kuil - Leuven-Template.eu

Trobareu la nostra informacio del temps tambe a:

Weather Underground

AWEKAS